createdAt,value
2022-12-01T00:01:17.505Z,75.75
2022-12-01T00:03:45.471Z,75.85
2022-12-01T00:06:17.995Z,75.57
2022-12-01T00:09:06.092Z,74.88
2022-12-01T00:11:34.876Z,75.97
2022-12-01T00:14:03.156Z,76.44
2022-12-01T00:16:31.357Z,76.04
2022-12-01T00:18:59.501Z,76.44
2022-12-01T00:21:27.575Z,77.15
2022-12-01T00:23:57.184Z,77.47
2022-12-01T00:26:26.172Z,77.85
2022-12-01T00:28:58.652Z,77.34
2022-12-01T00:31:27.037Z,76.67
2022-12-01T00:33:55.251Z,76.69
2022-12-01T00:36:23.472Z,76.69
2022-12-01T00:38:52.093Z,77.27
2022-12-01T00:41:21.167Z,77.67
2022-12-01T00:43:49.541Z,77.83
2022-12-01T00:46:18.061Z,77.44
2022-12-01T00:48:46.085Z,77.78
2022-12-01T00:51:14.053Z,78.58
2022-12-01T00:53:42.233Z,78.03
2022-12-01T00:56:10.410Z,78.09
2022-12-01T00:58:38.372Z,78.20
2022-12-01T01:01:06.583Z,78.13
2022-12-01T01:03:35.033Z,78.38
2022-12-01T01:06:07.687Z,78.28
2022-12-01T01:08:36.190Z,78.21
2022-12-01T01:11:04.874Z,78.38
2022-12-01T01:13:33.133Z,78.04
2022-12-01T01:16:05.860Z,78.08
2022-12-01T01:18:34.421Z,78.25
2022-12-01T01:21:04.442Z,78.47
2022-12-01T01:23:32.816Z,78.05
2022-12-01T01:26:02.316Z,78.05
2022-12-01T01:28:31.315Z,78.30
2022-12-01T01:30:59.579Z,78.08
2022-12-01T01:33:27.558Z,77.80
2022-12-01T01:35:58.722Z,77.80
2022-12-01T01:38:27.183Z,77.68
2022-12-01T01:40:55.461Z,77.86
2022-12-01T01:43:42.171Z,77.59
2022-12-01T01:46:11.949Z,77.42
2022-12-01T01:48:41.799Z,77.59
2022-12-01T01:51:11.789Z,77.61
2022-12-01T01:53:40.599Z,77.69
2022-12-01T01:56:08.966Z,77.94
2022-12-01T01:58:37.976Z,77.91
2022-12-01T02:01:06.607Z,78.16
2022-12-01T02:03:35.758Z,77.84
2022-12-01T02:06:05.180Z,77.58
2022-12-01T02:08:34.812Z,77.80
2022-12-01T02:11:12.532Z,77.97
2022-12-01T02:13:43.373Z,78.05
2022-12-01T02:16:23.569Z,78.34
2022-12-01T02:19:10.475Z,78.24
2022-12-01T02:21:57.286Z,77.85
2022-12-01T02:24:50.547Z,78.05
2022-12-01T02:27:31.011Z,79.17
2022-12-01T02:29:58.878Z,79.02
2022-12-01T02:32:37.501Z,78.98
2022-12-01T02:35:24.099Z,78.25
2022-12-01T02:37:52.069Z,78.95
2022-12-01T02:40:41.993Z,79.20
2022-12-01T02:43:17.712Z,78.91
2022-12-01T02:45:51.865Z,78.37
2022-12-01T02:48:26.887Z,78.00
2022-12-01T02:50:57.487Z,78.77
2022-12-01T02:53:26.068Z,78.46
2022-12-01T02:55:55.163Z,78.03
2022-12-01T02:58:23.344Z,78.17
2022-12-01T03:01:26.726Z,78.30
2022-12-01T03:04:13.247Z,78.29
2022-12-01T03:07:00.058Z,78.31
2022-12-01T03:09:47.214Z,78.31
2022-12-01T03:12:34.477Z,78.30
2022-12-01T03:15:05.242Z,78.06
2022-12-01T03:17:38.713Z,78.11
2022-12-01T03:20:27.899Z,78.54
2022-12-01T03:22:59.289Z,78.57
2022-12-01T03:25:28.958Z,78.52
2022-12-01T03:28:20.586Z,78.68
2022-12-01T03:30:49.538Z,79.02
2022-12-01T03:33:24.196Z,78.88
2022-12-01T03:35:56.583Z,78.76
2022-12-01T03:38:25.665Z,78.55
2022-12-01T03:40:58.960Z,78.65
2022-12-01T03:43:30.615Z,79.06
2022-12-01T03:46:10.785Z,79.25
2022-12-01T03:48:39.869Z,78.87
2022-12-01T03:51:31.392Z,79.02
2022-12-01T03:53:59.256Z,78.87
2022-12-01T03:56:30.915Z,78.29
2022-12-01T03:59:01.643Z,77.97
2022-12-01T04:01:36.324Z,77.26
2022-12-01T04:04:06.183Z,76.15
2022-12-01T04:06:34.579Z,75.93
2022-12-01T04:09:02.536Z,75.48
2022-12-01T04:11:49.242Z,75.47
2022-12-01T04:14:17.089Z,75.46
2022-12-01T04:16:44.977Z,75.35
2022-12-01T04:19:13.058Z,75.28
2022-12-01T04:21:40.924Z,75.37
2022-12-01T04:24:09.088Z,75.43
2022-12-01T04:26:37.489Z,75.01
2022-12-01T04:29:06.874Z,74.86
2022-12-01T04:31:34.919Z,75.02
2022-12-01T04:34:03.534Z,75.17
2022-12-01T04:36:32.928Z,75.23
2022-12-01T04:39:01.212Z,75.57
2022-12-01T04:41:29.386Z,75.73
2022-12-01T04:43:57.666Z,75.92
2022-12-01T04:46:25.885Z,76.02
2022-12-01T04:48:53.905Z,76.33
2022-12-01T04:51:22.396Z,76.46
2022-12-01T04:53:50.872Z,76.58
2022-12-01T04:56:18.845Z,76.55
2022-12-01T04:58:47.113Z,76.84
2022-12-01T05:01:16.482Z,77.25
2022-12-01T05:03:45.666Z,77.45
2022-12-01T05:06:15.221Z,77.51
2022-12-01T05:08:43.189Z,77.48
2022-12-01T05:11:12.493Z,77.73
2022-12-01T05:13:41.695Z,77.65
2022-12-01T05:16:16.722Z,77.91
2022-12-01T05:18:48.471Z,78.16
2022-12-01T05:21:17.174Z,78.41
2022-12-01T05:23:45.791Z,78.59
2022-12-01T05:26:13.846Z,78.74
2022-12-01T05:28:42.021Z,78.67
2022-12-01T05:31:10.114Z,78.31
2022-12-01T05:33:38.147Z,77.61
2022-12-01T05:36:06.317Z,77.65
2022-12-01T05:38:34.136Z,77.06
2022-12-01T05:41:02.053Z,78.21
2022-12-01T05:43:30.035Z,78.96
2022-12-01T05:45:58.473Z,79.08
2022-12-01T05:48:26.680Z,78.76
2022-12-01T05:50:54.520Z,78.76
2022-12-01T05:53:22.412Z,78.66
2022-12-01T05:55:53.967Z,78.71
2022-12-01T05:58:22.526Z,78.60
2022-12-01T06:00:50.422Z,78.50
2022-12-01T06:03:18.384Z,78.16
2022-12-01T06:05:46.461Z,77.01
2022-12-01T06:08:14.425Z,77.20
2022-12-01T06:10:42.299Z,78.31
2022-12-01T06:13:10.159Z,78.96
2022-12-01T06:15:38.031Z,78.89
2022-12-01T06:18:05.892Z,79.25
2022-12-01T06:20:33.761Z,79.40
2022-12-01T06:23:01.957Z,79.56
2022-12-01T06:25:30.319Z,79.66
2022-12-01T06:27:58.697Z,79.43
2022-12-01T06:30:27.069Z,79.39
2022-12-01T06:32:55.047Z,79.34
2022-12-01T06:35:23.014Z,79.45
2022-12-01T06:37:52.935Z,79.07
2022-12-01T06:40:20.779Z,78.85
2022-12-01T06:42:48.563Z,78.36
2022-12-01T06:45:16.429Z,78.20
2022-12-01T06:47:44.393Z,77.37
2022-12-01T06:50:12.464Z,76.55
2022-12-01T06:52:40.332Z,75.69
2022-12-01T06:55:08.608Z,75.05
2022-12-01T06:57:36.578Z,73.76
2022-12-01T07:00:05.107Z,72.46
2022-12-01T07:02:33.356Z,71.71
2022-12-01T07:05:01.932Z,70.83
2022-12-01T07:07:29.830Z,69.63
2022-12-01T07:09:57.969Z,67.85
2022-12-01T07:12:25.831Z,67.73
2022-12-01T07:14:53.698Z,67.69
2022-12-01T07:17:21.668Z,66.38
2022-12-01T07:19:49.892Z,64.38
2022-12-01T07:22:19.043Z,64.93
2022-12-01T07:24:47.111Z,65.41
2022-12-01T07:27:15.089Z,63.73
2022-12-01T07:29:42.897Z,61.74
2022-12-01T07:32:10.915Z,59.25
2022-12-01T07:34:38.993Z,58.04
2022-12-01T07:37:06.811Z,57.06
2022-12-01T07:39:34.797Z,57.90
2022-12-01T07:42:03.012Z,58.49
2022-12-01T07:44:30.965Z,56.88
2022-12-01T07:46:58.941Z,54.22
2022-12-01T07:49:26.910Z,52.83
2022-12-01T07:51:54.881Z,52.11
2022-12-01T07:54:23.050Z,52.16
2022-12-01T07:56:50.927Z,50.99
2022-12-01T07:59:18.896Z,49.37
2022-12-01T08:01:46.882Z,47.20
2022-12-01T08:04:14.682Z,48.03
2022-12-01T08:06:42.596Z,47.01
2022-12-01T08:09:10.573Z,47.09
2022-12-01T08:11:38.410Z,45.36
2022-12-01T08:14:06.503Z,45.14
2022-12-01T08:16:34.373Z,42.47
2022-12-01T08:19:02.238Z,41.54
2022-12-01T08:21:30.303Z,41.40
2022-12-01T08:23:58.789Z,42.35
2022-12-01T08:26:27.032Z,42.31
2022-12-01T08:28:55.541Z,38.88
2022-12-01T08:31:31.374Z,37.12
2022-12-01T08:33:59.371Z,37.20
2022-12-01T08:36:27.337Z,35.86
2022-12-01T08:38:55.898Z,36.54
2022-12-01T08:41:24.844Z,36.15
2022-12-01T08:43:58.400Z,35.49
2022-12-01T08:46:28.521Z,33.67
2022-12-01T08:48:57.839Z,33.24
2022-12-01T08:51:26.732Z,33.10
2022-12-01T08:53:55.515Z,34.58
2022-12-01T08:56:24.315Z,35.28
2022-12-01T08:58:53.403Z,37.11
2022-12-01T09:01:21.971Z,38.84
2022-12-01T09:04:05.684Z,40.30
2022-12-01T09:06:42.199Z,41.75
2022-12-01T09:09:11.599Z,43.42
2022-12-01T09:11:40.274Z,45.07
2022-12-01T09:14:08.269Z,46.99
2022-12-01T09:16:36.637Z,48.22
2022-12-01T09:19:04.678Z,49.47
2022-12-01T09:21:33.796Z,50.17
2022-12-01T09:24:01.768Z,50.93
2022-12-01T09:26:30.044Z,51.18
2022-12-01T09:29:03.851Z,51.45
2022-12-01T09:31:32.173Z,52.35
2022-12-01T09:34:01.738Z,52.65
2022-12-01T09:36:31.248Z,52.86
2022-12-01T09:38:59.616Z,52.97
2022-12-01T09:41:27.583Z,52.92
2022-12-01T09:43:58.329Z,52.43
2022-12-01T09:46:30.856Z,51.44
2022-12-01T09:49:01.446Z,50.84
2022-12-01T09:51:30.029Z,49.97
2022-12-01T09:53:59.728Z,49.21
2022-12-01T09:56:29.439Z,48.01
2022-12-01T09:58:58.525Z,47.44
2022-12-01T10:01:42.483Z,46.61
2022-12-01T10:04:14.242Z,45.77
2022-12-01T10:06:46.501Z,45.72
2022-12-01T10:09:20.412Z,43.66
2022-12-01T10:11:48.897Z,43.56
2022-12-01T10:14:20.383Z,42.43
2022-12-01T10:16:51.693Z,40.64
2022-12-01T10:19:33.999Z,40.79
2022-12-01T10:22:04.649Z,42.04
2022-12-01T10:24:44.577Z,42.52
2022-12-01T10:27:21.971Z,43.20
2022-12-01T10:29:53.207Z,44.16
2022-12-01T10:32:30.819Z,45.04
2022-12-01T10:34:59.184Z,45.65
2022-12-01T10:37:28.952Z,46.67
2022-12-01T10:39:58.004Z,47.32
2022-12-01T10:42:31.804Z,47.83
2022-12-01T10:45:01.617Z,48.26
2022-12-01T10:47:29.989Z,48.76
2022-12-01T10:49:58.387Z,49.47
2022-12-01T10:52:35.356Z,49.77
2022-12-01T10:55:04.965Z,50.25
2022-12-01T10:57:33.137Z,50.73
2022-12-01T11:00:09.043Z,50.93
2022-12-01T11:02:37.228Z,50.97
2022-12-01T11:05:07.207Z,50.83
2022-12-01T11:07:42.383Z,50.35
2022-12-01T11:10:10.285Z,50.69
2022-12-01T11:12:38.261Z,50.56
2022-12-01T11:15:06.666Z,50.69
2022-12-01T11:17:40.670Z,51.37
2022-12-01T11:20:30.569Z,51.08
2022-12-01T11:23:17.311Z,51.48
2022-12-01T11:25:57.350Z,51.54
2022-12-01T11:28:25.591Z,51.34
2022-12-01T11:31:01.644Z,51.97
2022-12-01T11:33:30.925Z,51.93
2022-12-01T11:35:59.000Z,51.76
2022-12-01T11:38:31.911Z,51.74
2022-12-01T11:40:59.964Z,51.76
2022-12-01T11:43:32.580Z,51.59
2022-12-01T11:46:03.763Z,51.54
2022-12-01T11:48:34.625Z,51.62
2022-12-01T11:51:17.951Z,51.70
2022-12-01T11:53:45.923Z,51.71
2022-12-01T11:56:14.930Z,51.96
2022-12-01T11:58:43.747Z,52.06
2022-12-01T12:01:31.909Z,51.99
2022-12-01T12:04:02.674Z,52.33
2022-12-01T12:06:47.440Z,52.90
2022-12-01T12:09:15.465Z,52.45
2022-12-01T12:11:43.379Z,52.43
2022-12-01T12:14:28.859Z,52.56
2022-12-01T12:17:03.386Z,52.60
2022-12-01T12:20:07.231Z,52.24
2022-12-01T12:22:35.876Z,52.52
2022-12-01T12:25:06.815Z,52.60
2022-12-01T12:27:40.616Z,52.37
2022-12-01T12:30:11.334Z,52.09
2022-12-01T12:32:39.229Z,51.57
2022-12-01T12:35:07.813Z,51.76
2022-12-01T12:37:35.777Z,51.97
2022-12-01T12:40:06.513Z,51.82
2022-12-01T12:42:43.702Z,51.70
2022-12-01T12:45:15.153Z,51.51
2022-12-01T12:47:59.200Z,50.81
2022-12-01T12:50:36.396Z,50.96
2022-12-01T12:53:08.854Z,50.93
2022-12-01T12:55:39.184Z,51.55
2022-12-01T12:58:15.976Z,51.98
2022-12-01T13:00:50.745Z,52.31
2022-12-01T13:03:32.248Z,52.62
2022-12-01T13:06:01.885Z,52.69
2022-12-01T13:08:34.607Z,53.04
2022-12-01T13:11:17.890Z,53.20
2022-12-01T13:13:54.871Z,53.37
2022-12-01T13:16:26.251Z,53.54
2022-12-01T13:18:56.197Z,54.19
2022-12-01T13:21:24.357Z,54.27
2022-12-01T13:23:52.706Z,54.50
2022-12-01T13:26:21.572Z,54.57
2022-12-01T13:28:56.625Z,54.85
2022-12-01T13:31:25.070Z,54.72
2022-12-01T13:33:59.213Z,54.92
2022-12-01T13:36:46.208Z,55.41
2022-12-01T13:39:19.827Z,55.63
2022-12-01T13:41:57.634Z,55.92
2022-12-01T13:44:45.692Z,55.80
2022-12-01T13:47:13.634Z,56.32
2022-12-01T13:49:46.316Z,56.64
2022-12-01T13:52:18.892Z,56.80
2022-12-01T13:55:05.683Z,58.51
2022-12-01T13:57:38.389Z,58.22
2022-12-01T14:00:09.127Z,57.98
2022-12-01T14:02:40.357Z,57.70
2022-12-01T14:05:23.509Z,57.70
2022-12-01T14:07:52.660Z,58.24
2022-12-01T14:10:25.988Z,58.32
2022-12-01T14:12:56.117Z,58.27
2022-12-01T14:15:30.017Z,58.34
2022-12-01T14:18:06.244Z,58.39
2022-12-01T14:20:38.030Z,58.23
2022-12-01T14:23:17.432Z,58.37
2022-12-01T14:25:57.423Z,58.20
2022-12-01T14:28:43.827Z,58.24
2022-12-01T14:31:12.016Z,59.03
2022-12-01T14:33:40.089Z,59.15
2022-12-01T14:36:23.196Z,59.08
2022-12-01T14:38:52.912Z,59.08
2022-12-01T14:41:32.553Z,59.56
2022-12-01T14:44:09.835Z,59.71
2022-12-01T14:46:46.207Z,59.87
2022-12-01T14:49:18.062Z,59.97
2022-12-01T14:51:47.465Z,59.59
2022-12-01T14:54:18.659Z,59.82
2022-12-01T14:56:48.200Z,60.00
2022-12-01T14:59:22.021Z,60.72
2022-12-01T15:01:58.477Z,60.94
2022-12-01T15:04:26.436Z,61.33
2022-12-01T15:06:56.380Z,61.40
2022-12-01T15:09:33.662Z,61.85
2022-12-01T15:12:05.021Z,61.79
2022-12-01T15:14:46.409Z,61.68
2022-12-01T15:17:43.553Z,61.44
2022-12-01T15:20:26.882Z,61.88
2022-12-01T15:22:55.652Z,62.42
2022-12-01T15:25:24.002Z,62.40
2022-12-01T15:28:10.557Z,62.56
2022-12-01T15:30:39.331Z,62.53
2022-12-01T15:33:08.372Z,62.84
2022-12-01T15:35:36.519Z,62.77
2022-12-01T15:38:05.096Z,62.45
2022-12-01T15:43:23.254Z,62.96
2022-12-01T15:45:54.742Z,63.44
2022-12-01T15:48:27.695Z,63.74
2022-12-01T15:51:19.013Z,63.97
2022-12-01T15:53:49.541Z,64.09
2022-12-01T15:56:24.702Z,64.49
2022-12-01T15:58:56.021Z,65.22
2022-12-01T16:01:29.153Z,65.39
2022-12-01T16:03:58.549Z,65.50
2022-12-01T16:06:31.706Z,65.89
2022-12-01T16:09:01.706Z,66.34
2022-12-01T16:11:29.919Z,67.14
2022-12-01T16:14:00.743Z,67.28
2022-12-01T16:16:31.806Z,67.41
2022-12-01T16:19:02.347Z,67.87
2022-12-01T16:21:45.636Z,68.41
2022-12-01T16:24:15.446Z,68.87
2022-12-01T16:27:09.841Z,69.14
2022-12-01T16:29:57.470Z,68.80
2022-12-01T16:32:30.513Z,69.43
2022-12-01T16:34:58.486Z,69.95
2022-12-01T16:37:27.017Z,69.72
2022-12-01T16:39:54.880Z,70.13
2022-12-01T16:42:22.848Z,70.46
2022-12-01T16:44:52.155Z,70.31
2022-12-01T16:47:22.059Z,70.72
2022-12-01T16:49:50.233Z,71.42
2022-12-01T16:55:20.680Z,72.58
2022-12-01T16:57:48.547Z,73.15
2022-12-01T17:00:16.756Z,73.85
2022-12-01T17:02:44.787Z,74.24
2022-12-01T17:05:12.970Z,74.90
2022-12-01T17:07:41.271Z,75.44
2022-12-01T17:10:09.626Z,76.09
2022-12-01T17:12:37.449Z,75.50
2022-12-01T17:15:05.776Z,75.58
2022-12-01T17:17:33.839Z,76.14
2022-12-01T17:20:02.055Z,76.71
2022-12-01T17:22:30.296Z,77.60
2022-12-01T17:24:59.601Z,77.92
2022-12-01T17:27:27.866Z,77.82
2022-12-01T17:29:55.956Z,77.51
2022-12-01T17:32:23.910Z,77.70
2022-12-01T17:34:52.087Z,77.63
2022-12-01T17:37:21.254Z,77.11
2022-12-01T17:39:50.070Z,76.85
2022-12-01T17:42:18.150Z,76.40
2022-12-01T17:44:45.950Z,75.56
2022-12-01T17:47:13.950Z,76.69
2022-12-01T17:49:42.050Z,77.92
2022-12-01T17:52:10.473Z,78.70
2022-12-01T17:54:38.722Z,79.04
2022-12-01T17:57:09.547Z,79.07
2022-12-01T17:59:37.517Z,79.09
2022-12-01T18:02:06.022Z,79.20
2022-12-01T18:04:34.481Z,79.07
2022-12-01T18:07:02.447Z,79.30
2022-12-01T18:09:30.310Z,79.07
2022-12-01T18:12:00.638Z,78.84
2022-12-01T18:14:32.809Z,78.94
2022-12-01T18:17:01.091Z,79.07
2022-12-01T18:19:29.054Z,79.83
2022-12-01T18:21:57.105Z,79.72
2022-12-01T18:24:25.204Z,79.63
2022-12-01T18:26:54.500Z,79.52
2022-12-01T18:29:26.314Z,79.41
2022-12-01T18:31:58.609Z,79.13
2022-12-01T18:34:27.517Z,79.61
2022-12-01T18:36:55.324Z,79.94
2022-12-01T18:39:23.472Z,80.19
2022-12-01T18:41:51.531Z,80.08
2022-12-01T18:44:19.375Z,80.10
2022-12-01T18:46:47.520Z,80.54
2022-12-01T18:49:15.746Z,80.15
2022-12-01T18:51:43.826Z,79.29
2022-12-01T18:54:14.115Z,78.96
2022-12-01T18:56:42.220Z,78.89
2022-12-01T18:59:11.206Z,78.43
2022-12-01T19:01:40.756Z,78.22
2022-12-01T19:04:09.402Z,77.74
2022-12-01T19:06:38.081Z,76.94
2022-12-01T19:09:07.081Z,76.75
2022-12-01T19:11:35.678Z,76.54
2022-12-01T19:14:03.944Z,76.55
2022-12-01T19:16:32.103Z,76.22
2022-12-01T19:19:01.145Z,76.05
2022-12-01T19:21:29.091Z,76.01
2022-12-01T19:23:57.145Z,76.69
2022-12-01T19:26:26.143Z,77.14
2022-12-01T19:28:54.059Z,77.31
2022-12-01T19:31:23.765Z,77.38
2022-12-01T19:33:52.874Z,77.48
2022-12-01T19:36:25.592Z,77.82
2022-12-01T19:38:55.618Z,78.21
2022-12-01T19:41:25.634Z,78.23
2022-12-01T19:43:53.601Z,78.44
2022-12-01T19:46:23.279Z,78.74
2022-12-01T19:49:00.253Z,79.05
2022-12-01T19:51:32.259Z,79.14
2022-12-01T19:54:00.228Z,79.52
2022-12-01T19:56:28.499Z,79.66
2022-12-01T19:58:57.478Z,79.74
2022-12-01T20:01:26.373Z,79.74
2022-12-01T20:03:54.954Z,79.82
2022-12-01T20:06:27.076Z,79.91
2022-12-01T20:08:56.133Z,79.80
2022-12-01T20:11:24.717Z,79.48
2022-12-01T20:13:53.404Z,80.03
2022-12-01T20:16:25.135Z,80.66
2022-12-01T20:18:53.650Z,81.03
2022-12-01T20:21:23.154Z,80.48
2022-12-01T20:23:54.576Z,79.59
2022-12-01T20:26:27.549Z,80.88
2022-12-01T20:28:59.966Z,81.40
2022-12-01T20:31:28.790Z,81.81
2022-12-01T20:33:57.848Z,82.10
2022-12-01T20:36:26.425Z,82.13
2022-12-01T20:38:54.700Z,82.37
2022-12-01T20:41:22.572Z,82.36
2022-12-01T20:43:50.542Z,82.58
2022-12-01T20:46:19.052Z,82.95
2022-12-01T20:48:47.000Z,82.21
2022-12-01T20:51:15.488Z,82.41
2022-12-01T20:53:59.471Z,82.91
2022-12-01T20:56:31.681Z,82.18
2022-12-01T20:59:00.077Z,81.06
2022-12-01T21:01:28.317Z,80.97
2022-12-01T21:03:56.416Z,80.09
2022-12-01T21:06:24.383Z,81.14
2022-12-01T21:08:52.353Z,81.99
2022-12-01T21:11:41.104Z,82.73
2022-12-01T21:14:32.437Z,83.09
2022-12-01T21:17:03.957Z,83.39
2022-12-01T21:19:45.565Z,83.64
2022-12-01T21:22:13.679Z,83.66
2022-12-01T21:24:43.994Z,83.69
2022-12-01T21:27:13.906Z,83.55
2022-12-01T21:29:46.896Z,83.57
2022-12-01T21:32:16.473Z,83.88
2022-12-01T21:34:45.570Z,83.85
2022-12-01T21:37:21.626Z,83.77
2022-12-01T21:39:53.706Z,83.68
2022-12-01T21:42:22.866Z,83.66
2022-12-01T21:44:51.323Z,83.43
2022-12-01T21:47:24.057Z,83.29
2022-12-01T21:49:59.136Z,83.36
2022-12-01T21:52:34.535Z,83.31
2022-12-01T21:55:14.485Z,83.39
2022-12-01T21:57:46.854Z,83.49
2022-12-01T22:00:26.089Z,83.43
2022-12-01T22:03:00.193Z,83.11
2022-12-01T22:05:28.181Z,82.88
2022-12-01T22:07:59.895Z,82.15
2022-12-01T22:10:46.741Z,81.78
2022-12-01T22:13:14.710Z,81.31
2022-12-01T22:15:42.701Z,80.85
2022-12-01T22:18:37.181Z,80.72
2022-12-01T22:21:25.312Z,80.02
2022-12-01T22:24:08.339Z,79.95
2022-12-01T22:26:37.438Z,79.71
2022-12-01T22:29:16.870Z,79.32
2022-12-01T22:31:44.738Z,79.51
2022-12-01T22:34:15.985Z,79.66
2022-12-01T22:36:44.258Z,80.25
2022-12-01T22:39:33.462Z,80.17
2022-12-01T22:42:05.491Z,79.43
2022-12-01T22:44:33.467Z,79.52
2022-12-01T22:47:02.360Z,79.75
2022-12-01T22:49:30.604Z,80.06
2022-12-01T22:52:28.306Z,80.31
2022-12-01T22:54:56.264Z,80.58
2022-12-01T22:57:26.289Z,80.98
2022-12-01T22:59:54.986Z,81.20
2022-12-01T23:02:34.173Z,81.43
2022-12-01T23:05:14.977Z,81.46
2022-12-01T23:07:43.959Z,81.41
2022-12-01T23:10:17.065Z,81.55
2022-12-01T23:12:45.919Z,81.45
2022-12-01T23:15:19.758Z,81.37
2022-12-01T23:17:48.028Z,81.85
2022-12-01T23:20:26.967Z,82.20
2022-12-01T23:22:55.946Z,82.37
2022-12-01T23:25:24.880Z,82.84
2022-12-01T23:27:53.831Z,83.16
2022-12-01T23:30:22.415Z,83.27
2022-12-01T23:33:13.503Z,83.29
2022-12-01T23:35:46.311Z,83.45
2022-12-01T23:38:18.989Z,83.70
2022-12-01T23:40:47.580Z,84.12
2022-12-01T23:43:23.946Z,84.45
2022-12-01T23:45:58.772Z,84.56
2022-12-01T23:48:31.656Z,84.33
2022-12-01T23:50:59.831Z,84.25
2022-12-01T23:53:28.930Z,84.39
2022-12-01T23:55:59.657Z,84.18
2022-12-01T23:58:28.187Z,84.11
